Riegelwood, North Carolina
Current Conditions -  °F | °C
As of 3:53 AM on Friday 28 Nov 2014 (Local Time) from KILM Reporting Station
Clear Clear  
Wind Chill: 30°   Ceiling: Unl
Heat Index: 34°   Visibility: 10mi
Dew Point: 30°   Wind: 5mph
Humidity: 85%   Direction: 340°NNW
Pressure: 30.27"   Gusts: NA
Location:  34.34°N, 78.23°W
Report Text: KILM 280853Z AUTO 34004KT 10SM CLR 01/M01 A3027 RMK AO2 SLP251 T00111011 51013
Loading
Personal Weather Stations






























Interactive Weather Map New forecast layout! Learn more

10-Day Weather Forecast

Advertisements
Track Severe Weather on mobile